sensor_id;sensor_type;location;lat;lon;timestamp;P1;durP1;ratioP1;P2;durP2;ratioP2
7737;SDS011;29398;45.328;5.558;2024-01-11T00:00:12;57.90;;;37.80;;
7737;SDS011;29398;45.328;5.558;2024-01-11T00:01:14;58.97;;;36.80;;
7737;SDS011;29398;45.328;5.558;2024-01-11T00:02:16;57.95;;;36.85;;
7737;SDS011;29398;45.328;5.558;2024-01-11T00:03:19;53.78;;;35.15;;
7737;SDS011;29398;45.328;5.558;2024-01-11T00:04:20;58.97;;;38.33;;
7737;SDS011;29398;45.328;5.558;2024-01-11T00:05:22;60.03;;;39.35;;
7737;SDS011;29398;45.328;5.558;2024-01-11T00:06:24;59.40;;;36.72;;
7737;SDS011;29398;45.328;5.558;2024-01-11T00:07:26;54.58;;;36.67;;
7737;SDS011;29398;45.328;5.558;2024-01-11T00:08:27;54.78;;;35.72;;
7737;SDS011;29398;45.328;5.558;2024-01-11T00:09:29;59.30;;;38.42;;
7737;SDS011;29398;45.328;5.558;2024-01-11T00:10:30;59.40;;;37.28;;
7737;SDS011;29398;45.328;5.558;2024-01-11T00:11:32;59.58;;;37.88;;
7737;SDS011;29398;45.328;5.558;2024-01-11T00:12:33;57.33;;;36.95;;
7737;SDS011;29398;45.328;5.558;2024-01-11T00:13:35;59.15;;;37.88;;
7737;SDS011;29398;45.328;5.558;2024-01-11T00:14:36;55.97;;;36.95;;
7737;SDS011;29398;45.328;5.558;2024-01-11T00:15:38;53.33;;;35.88;;
7737;SDS011;29398;45.328;5.558;2024-01-11T00:16:40;54.78;;;35.28;;
7737;SDS011;29398;45.328;5.558;2024-01-11T00:17:44;58.63;;;37.25;;
7737;SDS011;29398;45.328;5.558;2024-01-11T00:18:45;57.38;;;37.53;;
7737;SDS011;29398;45.328;5.558;2024-01-11T00:19:46;57.92;;;37.05;;
7737;SDS011;29398;45.328;5.558;2024-01-11T00:20:49;54.83;;;34.70;;
7737;SDS011;29398;45.328;5.558;2024-01-11T00:21:50;57.67;;;36.65;;
7737;SDS011;29398;45.328;5.558;2024-01-11T00:22:52;59.58;;;37.78;;
7737;SDS011;29398;45.328;5.558;2024-01-11T00:23:53;56.13;;;36.42;;
7737;SDS011;29398;45.328;5.558;2024-01-11T00:24:55;59.90;;;38.17;;
7737;SDS011;29398;45.328;5.558;2024-01-11T00:25:56;55.95;;;36.70;;
7737;SDS011;29398;45.328;5.558;2024-01-11T00:26:59;58.58;;;37.47;;
7737;SDS011;29398;45.328;5.558;2024-01-11T00:28:01;60.47;;;39.13;;
7737;SDS011;29398;45.328;5.558;2024-01-11T00:29:03;58.42;;;36.22;;
7737;SDS011;29398;45.328;5.558;2024-01-11T00:30:05;59.17;;;37.45;;
7737;SDS011;29398;45.328;5.558;2024-01-11T00:31:07;57.22;;;35.40;;
7737;SDS011;29398;45.328;5.558;2024-01-11T00:32:09;53.95;;;35.45;;
7737;SDS011;29398;45.328;5.558;2024-01-11T00:33:12;53.17;;;35.03;;
7737;SDS011;29398;45.328;5.558;2024-01-11T00:34:14;55.75;;;37.92;;
7737;SDS011;29398;45.328;5.558;2024-01-11T00:35:15;60.92;;;38.88;;
7737;SDS011;29398;45.328;5.558;2024-01-11T00:36:18;56.05;;;35.47;;
7737;SDS011;29398;45.328;5.558;2024-01-11T00:37:19;58.97;;;38.10;;
7737;SDS011;29398;45.328;5.558;2024-01-11T00:38:21;54.45;;;34.10;;
7737;SDS011;29398;45.328;5.558;2024-01-11T00:39:22;60.17;;;38.20;;
7737;SDS011;29398;45.328;5.558;2024-01-11T00:40:25;57.47;;;38.40;;
7737;SDS011;29398;45.328;5.558;2024-01-11T00:41:26;52.83;;;34.05;;
7737;SDS011;29398;45.328;5.558;2024-01-11T00:42:28;58.55;;;37.38;;
7737;SDS011;29398;45.328;5.558;2024-01-11T00:43:30;56.38;;;36.63;;
7737;SDS011;29398;45.328;5.558;2024-01-11T00:44:32;53.90;;;36.67;;
7737;SDS011;29398;45.328;5.558;2024-01-11T00:45:33;57.13;;;36.92;;
7737;SDS011;29398;45.328;5.558;2024-01-11T00:46:34;58.45;;;37.47;;
7737;SDS011;29398;45.328;5.558;2024-01-11T00:47:38;56.70;;;36.33;;
7737;SDS011;29398;45.328;5.558;2024-01-11T00:48:40;55.45;;;36.28;;
7737;SDS011;29398;45.328;5.558;2024-01-11T00:49:43;55.40;;;37.25;;
7737;SDS011;29398;45.328;5.558;2024-01-11T00:50:44;56.95;;;37.20;;
7737;SDS011;29398;45.328;5.558;2024-01-11T00:51:46;58.30;;;39.92;;
7737;SDS011;29398;45.328;5.558;2024-01-11T00:52:47;57.60;;;37.20;;
7737;SDS011;29398;45.328;5.558;2024-01-11T00:53:49;56.42;;;35.75;;
7737;SDS011;29398;45.328;5.558;2024-01-11T00:54:50;59.00;;;36.78;;
7737;SDS011;29398;45.328;5.558;2024-01-11T00:55:52;57.17;;;36.70;;
7737;SDS011;29398;45.328;5.558;2024-01-11T00:56:54;57.00;;;37.95;;
7737;SDS011;29398;45.328;5.558;2024-01-11T00:57:56;56.25;;;37.50;;
7737;SDS011;29398;45.328;5.558;2024-01-11T00:58:57;57.83;;;37.65;;
7737;SDS011;29398;45.328;5.558;2024-01-11T01:00:02;60.45;;;39.45;;
7737;SDS011;29398;45.328;5.558;2024-01-11T01:01:08;56.65;;;38.33;;
7737;SDS011;29398;45.328;5.558;2024-01-11T01:02:10;57.45;;;38.60;;
7737;SDS011;29398;45.328;5.558;2024-01-11T01:03:11;58.95;;;39.25;;
7737;SDS011;29398;45.328;5.558;2024-01-11T01:04:16;59.85;;;39.53;;
7737;SDS011;29398;45.328;5.558;2024-01-11T01:05:17;54.47;;;35.47;;
7737;SDS011;29398;45.328;5.558;2024-01-11T01:06:19;55.05;;;37.05;;
7737;SDS011;29398;45.328;5.558;2024-01-11T01:07:20;59.78;;;38.60;;
7737;SDS011;29398;45.328;5.558;2024-01-11T01:08:22;55.25;;;35.63;;
7737;SDS011;29398;45.328;5.558;2024-01-11T01:09:23;54.63;;;35.65;;
7737;SDS011;29398;45.328;5.558;2024-01-11T01:10:25;61.88;;;39.03;;
7737;SDS011;29398;45.328;5.558;2024-01-11T01:11:26;57.63;;;37.65;;
7737;SDS011;29398;45.328;5.558;2024-01-11T01:12:28;54.97;;;36.47;;
7737;SDS011;29398;45.328;5.558;2024-01-11T01:13:30;54.40;;;35.67;;
7737;SDS011;29398;45.328;5.558;2024-01-11T01:14:32;56.35;;;37.17;;
7737;SDS011;29398;45.328;5.558;2024-01-11T01:15:33;56.85;;;37.00;;
7737;SDS011;29398;45.328;5.558;2024-01-11T01:16:34;60.17;;;38.13;;
7737;SDS011;29398;45.328;5.558;2024-01-11T01:17:36;58.53;;;38.03;;
7737;SDS011;29398;45.328;5.558;2024-01-11T01:18:37;57.58;;;37.13;;
7737;SDS011;29398;45.328;5.558;2024-01-11T01:19:41;57.55;;;37.20;;
7737;SDS011;29398;45.328;5.558;2024-01-11T01:20:42;57.25;;;37.72;;
7737;SDS011;29398;45.328;5.558;2024-01-11T01:21:44;54.33;;;34.95;;
7737;SDS011;29398;45.328;5.558;2024-01-11T01:22:45;56.90;;;36.22;;
7737;SDS011;29398;45.328;5.558;2024-01-11T01:23:47;58.53;;;39.17;;
7737;SDS011;29398;45.328;5.558;2024-01-11T01:24:48;57.75;;;38.00;;
7737;SDS011;29398;45.328;5.558;2024-01-11T01:25:49;61.80;;;38.95;;
7737;SDS011;29398;45.328;5.558;2024-01-11T01:26:51;57.95;;;36.65;;
7737;SDS011;29398;45.328;5.558;2024-01-11T01:27:52;59.63;;;37.85;;
7737;SDS011;29398;45.328;5.558;2024-01-11T01:28:55;52.90;;;35.92;;
7737;SDS011;29398;45.328;5.558;2024-01-11T01:29:56;57.15;;;37.17;;
7737;SDS011;29398;45.328;5.558;2024-01-11T01:30:58;56.95;;;37.45;;
7737;SDS011;29398;45.328;5.558;2024-01-11T01:31:59;62.75;;;38.67;;
7737;SDS011;29398;45.328;5.558;2024-01-11T01:33:00;62.45;;;38.92;;
7737;SDS011;29398;45.328;5.558;2024-01-11T01:34:02;59.22;;;38.97;;
7737;SDS011;29398;45.328;5.558;2024-01-11T01:35:04;52.53;;;35.00;;
7737;SDS011;29398;45.328;5.558;2024-01-11T01:36:08;56.15;;;37.00;;
7737;SDS011;29398;45.328;5.558;2024-01-11T01:37:10;56.30;;;35.40;;
7737;SDS011;29398;45.328;5.558;2024-01-11T01:38:12;58.05;;;36.50;;
7737;SDS011;29398;45.328;5.558;2024-01-11T01:39:13;56.35;;;37.63;;
7737;SDS011;29398;45.328;5.558;2024-01-11T01:40:14;57.53;;;36.28;;
7737;SDS011;29398;45.328;5.558;2024-01-11T01:41:16;56.13;;;36.30;;
7737;SDS011;29398;45.328;5.558;2024-01-11T01:42:17;59.28;;;37.97;;
7737;SDS011;29398;45.328;5.558;2024-01-11T01:43:19;62.50;;;38.03;;
7737;SDS011;29398;45.328;5.558;2024-01-11T01:44:20;54.90;;;35.15;;
7737;SDS011;29398;45.328;5.558;2024-01-11T01:45:23;56.80;;;38.22;;
7737;SDS011;29398;45.328;5.558;2024-01-11T01:46:24;58.15;;;37.22;;
7737;SDS011;29398;45.328;5.558;2024-01-11T01:47:26;58.10;;;36.67;;
7737;SDS011;29398;45.328;5.558;2024-01-11T01:48:29;57.95;;;37.50;;
7737;SDS011;29398;45.328;5.558;2024-01-11T01:49:30;53.92;;;35.38;;
7737;SDS011;29398;45.328;5.558;2024-01-11T01:50:34;60.90;;;38.63;;
7737;SDS011;29398;45.328;5.558;2024-01-11T01:51:35;55.80;;;35.60;;
7737;SDS011;29398;45.328;5.558;2024-01-11T01:52:38;57.67;;;36.13;;
7737;SDS011;29398;45.328;5.558;2024-01-11T01:53:42;56.35;;;35.72;;
7737;SDS011;29398;45.328;5.558;2024-01-11T01:54:44;55.10;;;35.45;;
7737;SDS011;29398;45.328;5.558;2024-01-11T01:55:46;56.70;;;36.75;;
7737;SDS011;29398;45.328;5.558;2024-01-11T01:56:48;55.20;;;36.53;;
7737;SDS011;29398;45.328;5.558;2024-01-11T01:57:50;55.60;;;36.10;;
7737;SDS011;29398;45.328;5.558;2024-01-11T01:58:53;60.15;;;38.78;;
7737;SDS011;29398;45.328;5.558;2024-01-11T01:59:55;59.63;;;36.83;;
7737;SDS011;29398;45.328;5.558;2024-01-11T02:00:58;57.45;;;36.45;;
7737;SDS011;29398;45.328;5.558;2024-01-11T02:01:59;58.65;;;36.47;;
7737;SDS011;29398;45.328;5.558;2024-01-11T02:03:00;57.15;;;36.85;;
7737;SDS011;29398;45.328;5.558;2024-01-11T02:04:02;56.28;;;35.58;;
7737;SDS011;29398;45.328;5.558;2024-01-11T02:05:04;60.17;;;37.17;;
7737;SDS011;29398;45.328;5.558;2024-01-11T02:06:08;56.63;;;36.50;;
7737;SDS011;29398;45.328;5.558;2024-01-11T02:07:10;55.28;;;36.38;;
7737;SDS011;29398;45.328;5.558;2024-01-11T02:08:16;55.05;;;35.08;;
7737;SDS011;29398;45.328;5.558;2024-01-11T02:09:20;56.60;;;36.90;;
7737;SDS011;29398;45.328;5.558;2024-01-11T02:10:23;59.45;;;37.25;;
7737;SDS011;29398;45.328;5.558;2024-01-11T02:11:25;59.85;;;38.70;;
7737;SDS011;29398;45.328;5.558;2024-01-11T02:12:28;60.30;;;38.08;;
7737;SDS011;29398;45.328;5.558;2024-01-11T02:13:31;54.35;;;34.65;;
7737;SDS011;29398;45.328;5.558;2024-01-11T02:14:32;55.35;;;35.88;;
7737;SDS011;29398;45.328;5.558;2024-01-11T02:15:35;57.47;;;35.88;;
7737;SDS011;29398;45.328;5.558;2024-01-11T02:16:36;61.90;;;38.10;;
7737;SDS011;29398;45.328;5.558;2024-01-11T02:17:39;60.40;;;37.78;;
7737;SDS011;29398;45.328;5.558;2024-01-11T02:18:41;59.60;;;38.65;;
7737;SDS011;29398;45.328;5.558;2024-01-11T02:19:43;57.42;;;36.78;;
7737;SDS011;29398;45.328;5.558;2024-01-11T02:20:44;56.95;;;36.33;;
7737;SDS011;29398;45.328;5.558;2024-01-11T02:21:48;63.58;;;38.40;;
7737;SDS011;29398;45.328;5.558;2024-01-11T02:22:55;54.90;;;34.35;;
7737;SDS011;29398;45.328;5.558;2024-01-11T02:24:04;61.63;;;39.08;;
7737;SDS011;29398;45.328;5.558;2024-01-11T02:25:08;60.50;;;37.92;;
7737;SDS011;29398;45.328;5.558;2024-01-11T02:26:09;60.28;;;39.63;;
7737;SDS011;29398;45.328;5.558;2024-01-11T02:27:10;59.92;;;38.28;;
7737;SDS011;29398;45.328;5.558;2024-01-11T02:28:12;62.10;;;37.08;;
7737;SDS011;29398;45.328;5.558;2024-01-11T02:29:13;58.72;;;37.92;;
7737;SDS011;29398;45.328;5.558;2024-01-11T02:30:15;56.78;;;36.17;;
7737;SDS011;29398;45.328;5.558;2024-01-11T02:31:17;58.20;;;36.88;;
7737;SDS011;29398;45.328;5.558;2024-01-11T02:32:19;62.80;;;39.15;;
7737;SDS011;29398;45.328;5.558;2024-01-11T02:33:21;59.15;;;37.45;;
7737;SDS011;29398;45.328;5.558;2024-01-11T02:34:23;61.50;;;39.17;;
7737;SDS011;29398;45.328;5.558;2024-01-11T02:35:26;60.38;;;38.28;;
7737;SDS011;29398;45.328;5.558;2024-01-11T02:36:29;61.00;;;37.92;;
7737;SDS011;29398;45.328;5.558;2024-01-11T02:37:31;63.30;;;40.13;;
7737;SDS011;29398;45.328;5.558;2024-01-11T02:38:33;57.33;;;35.80;;
7737;SDS011;29398;45.328;5.558;2024-01-11T02:39:37;64.65;;;39.97;;
7737;SDS011;29398;45.328;5.558;2024-01-11T02:40:39;64.38;;;39.38;;
7737;SDS011;29398;45.328;5.558;2024-01-11T02:41:42;60.63;;;37.75;;
7737;SDS011;29398;45.328;5.558;2024-01-11T02:42:45;60.40;;;38.30;;
7737;SDS011;29398;45.328;5.558;2024-01-11T02:43:46;58.17;;;36.45;;
7737;SDS011;29398;45.328;5.558;2024-01-11T02:44:49;59.30;;;37.75;;
7737;SDS011;29398;45.328;5.558;2024-01-11T02:45:50;58.78;;;37.35;;
7737;SDS011;29398;45.328;5.558;2024-01-11T02:46:54;57.25;;;37.30;;
7737;SDS011;29398;45.328;5.558;2024-01-11T02:47:56;58.38;;;36.83;;
7737;SDS011;29398;45.328;5.558;2024-01-11T02:48:57;60.70;;;39.38;;
7737;SDS011;29398;45.328;5.558;2024-01-11T02:49:59;57.28;;;35.03;;
7737;SDS011;29398;45.328;5.558;2024-01-11T02:51:00;65.70;;;39.42;;
7737;SDS011;29398;45.328;5.558;2024-01-11T02:52:03;62.38;;;38.47;;
7737;SDS011;29398;45.328;5.558;2024-01-11T02:53:04;58.92;;;36.70;;
7737;SDS011;29398;45.328;5.558;2024-01-11T02:54:06;61.65;;;39.55;;
7737;SDS011;29398;45.328;5.558;2024-01-11T02:55:09;63.33;;;39.42;;
7737;SDS011;29398;45.328;5.558;2024-01-11T02:56:12;59.60;;;35.50;;
7737;SDS011;29398;45.328;5.558;2024-01-11T02:57:13;61.50;;;37.70;;
7737;SDS011;29398;45.328;5.558;2024-01-11T02:58:15;59.15;;;36.85;;
7737;SDS011;29398;45.328;5.558;2024-01-11T02:59:16;61.40;;;38.90;;
7737;SDS011;29398;45.328;5.558;2024-01-11T03:00:18;61.47;;;38.88;;
7737;SDS011;29398;45.328;5.558;2024-01-11T03:01:19;60.35;;;37.75;;
7737;SDS011;29398;45.328;5.558;2024-01-11T03:02:21;58.97;;;37.20;;
7737;SDS011;29398;45.328;5.558;2024-01-11T03:03:22;61.45;;;39.15;;
7737;SDS011;29398;45.328;5.558;2024-01-11T03:04:24;57.78;;;37.85;;
7737;SDS011;29398;45.328;5.558;2024-01-11T03:05:25;62.42;;;38.15;;
7737;SDS011;29398;45.328;5.558;2024-01-11T03:06:28;62.20;;;38.35;;
7737;SDS011;29398;45.328;5.558;2024-01-11T03:07:29;61.03;;;37.38;;
7737;SDS011;29398;45.328;5.558;2024-01-11T03:08:32;58.42;;;37.75;;
7737;SDS011;29398;45.328;5.558;2024-01-11T03:09:34;56.65;;;35.55;;
7737;SDS011;29398;45.328;5.558;2024-01-11T03:10:38;61.05;;;38.17;;
7737;SDS011;29398;45.328;5.558;2024-01-11T03:11:39;58.42;;;37.38;;
7737;SDS011;29398;45.328;5.558;2024-01-11T03:12:41;52.55;;;35.08;;
7737;SDS011;29398;45.328;5.558;2024-01-11T03:13:42;60.75;;;38.15;;
7737;SDS011;29398;45.328;5.558;2024-01-11T03:14:44;61.88;;;38.38;;
7737;SDS011;29398;45.328;5.558;2024-01-11T03:15:45;60.67;;;38.03;;
7737;SDS011;29398;45.328;5.558;2024-01-11T03:16:47;61.03;;;36.80;;
7737;SDS011;29398;45.328;5.558;2024-01-11T03:17:48;63.03;;;39.45;;
7737;SDS011;29398;45.328;5.558;2024-01-11T03:18:50;62.78;;;38.45;;
7737;SDS011;29398;45.328;5.558;2024-01-11T03:19:51;57.67;;;37.28;;
7737;SDS011;29398;45.328;5.558;2024-01-11T03:20:52;63.25;;;39.55;;
7737;SDS011;29398;45.328;5.558;2024-01-11T03:21:54;58.50;;;36.97;;
7737;SDS011;29398;45.328;5.558;2024-01-11T03:22:55;63.42;;;36.75;;
7737;SDS011;29398;45.328;5.558;2024-01-11T03:23:58;63.35;;;40.22;;
7737;SDS011;29398;45.328;5.558;2024-01-11T03:25:00;59.65;;;37.70;;
7737;SDS011;29398;45.328;5.558;2024-01-11T03:26:04;62.22;;;36.95;;
7737;SDS011;29398;45.328;5.558;2024-01-11T03:27:12;61.15;;;37.90;;
7737;SDS011;29398;45.328;5.558;2024-01-11T03:28:14;61.70;;;38.13;;
7737;SDS011;29398;45.328;5.558;2024-01-11T03:29:15;62.88;;;39.95;;
7737;SDS011;29398;45.328;5.558;2024-01-11T03:30:17;65.75;;;41.20;;
7737;SDS011;29398;45.328;5.558;2024-01-11T03:31:18;64.05;;;39.45;;
7737;SDS011;29398;45.328;5.558;2024-01-11T03:32:20;63.53;;;38.75;;
7737;SDS011;29398;45.328;5.558;2024-01-11T03:33:21;67.05;;;41.42;;
7737;SDS011;29398;45.328;5.558;2024-01-11T03:34:23;59.85;;;39.20;;
7737;SDS011;29398;45.328;5.558;2024-01-11T03:35:25;65.45;;;41.53;;
7737;SDS011;29398;45.328;5.558;2024-01-11T03:36:26;64.30;;;39.60;;
7737;SDS011;29398;45.328;5.558;2024-01-11T03:37:28;64.50;;;40.72;;
7737;SDS011;29398;45.328;5.558;2024-01-11T03:38:29;71.28;;;42.47;;
7737;SDS011;29398;45.328;5.558;2024-01-11T03:39:30;61.03;;;38.85;;
7737;SDS011;29398;45.328;5.558;2024-01-11T03:40:32;67.82;;;41.47;;
7737;SDS011;29398;45.328;5.558;2024-01-11T03:41:34;69.40;;;41.88;;
7737;SDS011;29398;45.328;5.558;2024-01-11T03:42:37;65.60;;;42.58;;
7737;SDS011;29398;45.328;5.558;2024-01-11T03:43:38;57.50;;;36.45;;
7737;SDS011;29398;45.328;5.558;2024-01-11T03:44:40;62.83;;;40.10;;
7737;SDS011;29398;45.328;5.558;2024-01-11T03:45:41;65.03;;;41.63;;
7737;SDS011;29398;45.328;5.558;2024-01-11T03:46:43;58.70;;;37.30;;
7737;SDS011;29398;45.328;5.558;2024-01-11T03:47:44;59.17;;;34.85;;
7737;SDS011;29398;45.328;5.558;2024-01-11T03:48:46;64.65;;;40.20;;
7737;SDS011;29398;45.328;5.558;2024-01-11T03:49:47;63.03;;;39.38;;
7737;SDS011;29398;45.328;5.558;2024-01-11T03:50:49;63.33;;;37.75;;
7737;SDS011;29398;45.328;5.558;2024-01-11T03:51:50;60.28;;;36.97;;
7737;SDS011;29398;45.328;5.558;2024-01-11T03:52:51;57.92;;;37.08;;
7737;SDS011;29398;45.328;5.558;2024-01-11T03:53:53;56.97;;;36.38;;
7737;SDS011;29398;45.328;5.558;2024-01-11T03:54:55;61.75;;;38.55;;
7737;SDS011;29398;45.328;5.558;2024-01-11T03:55:57;54.53;;;35.13;;
7737;SDS011;29398;45.328;5.558;2024-01-11T03:56:59;55.30;;;34.58;;
7737;SDS011;29398;45.328;5.558;2024-01-11T03:58:01;53.92;;;34.17;;
7737;SDS011;29398;45.328;5.558;2024-01-11T03:59:02;55.25;;;34.70;;
7737;SDS011;29398;45.328;5.558;2024-01-11T04:00:06;54.25;;;34.70;;
7737;SDS011;29398;45.328;5.558;2024-01-11T04:01:09;57.25;;;37.08;;
7737;SDS011;29398;45.328;5.558;2024-01-11T04:02:11;60.58;;;36.97;;
7737;SDS011;29398;45.328;5.558;2024-01-11T04:03:13;59.08;;;35.75;;
7737;SDS011;29398;45.328;5.558;2024-01-11T04:04:14;66.72;;;39.70;;
7737;SDS011;29398;45.328;5.558;2024-01-11T04:05:16;57.47;;;35.72;;
7737;SDS011;29398;45.328;5.558;2024-01-11T04:06:20;62.33;;;37.72;;
7737;SDS011;29398;45.328;5.558;2024-01-11T04:07:21;61.53;;;38.35;;
7737;SDS011;29398;45.328;5.558;2024-01-11T04:08:24;60.80;;;38.38;;
7737;SDS011;29398;45.328;5.558;2024-01-11T04:09:25;62.53;;;37.88;;
7737;SDS011;29398;45.328;5.558;2024-01-11T04:10:27;65.57;;;40.13;;
7737;SDS011;29398;45.328;5.558;2024-01-11T04:11:28;63.50;;;37.70;;
7737;SDS011;29398;45.328;5.558;2024-01-11T04:12:32;61.83;;;38.65;;
7737;SDS011;29398;45.328;5.558;2024-01-11T04:13:33;62.47;;;38.45;;
7737;SDS011;29398;45.328;5.558;2024-01-11T04:14:37;65.07;;;40.25;;
7737;SDS011;29398;45.328;5.558;2024-01-11T04:15:39;61.42;;;37.20;;
7737;SDS011;29398;45.328;5.558;2024-01-11T04:16:41;55.58;;;34.92;;
7737;SDS011;29398;45.328;5.558;2024-01-11T04:17:43;59.53;;;36.97;;
7737;SDS011;29398;45.328;5.558;2024-01-11T04:18:45;55.20;;;33.70;;
7737;SDS011;29398;45.328;5.558;2024-01-11T04:19:46;56.75;;;35.20;;
7737;SDS011;29398;45.328;5.558;2024-01-11T04:20:48;53.53;;;33.67;;
7737;SDS011;29398;45.328;5.558;2024-01-11T04:21:49;57.17;;;35.55;;
7737;SDS011;29398;45.328;5.558;2024-01-11T04:22:51;55.20;;;34.78;;
7737;SDS011;29398;45.328;5.558;2024-01-11T04:23:52;55.50;;;35.80;;
7737;SDS011;29398;45.328;5.558;2024-01-11T04:24:55;56.10;;;34.03;;
7737;SDS011;29398;45.328;5.558;2024-01-11T04:25:56;58.38;;;36.08;;
7737;SDS011;29398;45.328;5.558;2024-01-11T04:26:58;52.90;;;32.67;;
7737;SDS011;29398;45.328;5.558;2024-01-11T04:28:00;61.33;;;37.03;;
7737;SDS011;29398;45.328;5.558;2024-01-11T04:29:02;58.05;;;34.53;;
7737;SDS011;29398;45.328;5.558;2024-01-11T04:30:04;56.70;;;34.53;;
7737;SDS011;29398;45.328;5.558;2024-01-11T04:31:07;52.30;;;33.33;;
7737;SDS011;29398;45.328;5.558;2024-01-11T04:32:08;49.97;;;31.77;;
7737;SDS011;29398;45.328;5.558;2024-01-11T04:33:10;50.53;;;32.13;;
7737;SDS011;29398;45.328;5.558;2024-01-11T04:34:11;51.28;;;30.92;;
7737;SDS011;29398;45.328;5.558;2024-01-11T04:35:14;53.22;;;32.80;;
7737;SDS011;29398;45.328;5.558;2024-01-11T04:36:15;52.47;;;31.67;;
7737;SDS011;29398;45.328;5.558;2024-01-11T04:37:17;53.70;;;32.10;;
7737;SDS011;29398;45.328;5.558;2024-01-11T04:38:18;51.53;;;31.23;;
7737;SDS011;29398;45.328;5.558;2024-01-11T04:39:20;50.22;;;31.17;;
7737;SDS011;29398;45.328;5.558;2024-01-11T04:40:21;51.05;;;31.33;;
7737;SDS011;29398;45.328;5.558;2024-01-11T04:41:23;49.55;;;31.88;;
7737;SDS011;29398;45.328;5.558;2024-01-11T04:42:24;48.65;;;31.65;;
7737;SDS011;29398;45.328;5.558;2024-01-11T04:43:28;53.65;;;33.22;;
7737;SDS011;29398;45.328;5.558;2024-01-11T04:44:29;51.67;;;31.08;;
7737;SDS011;29398;45.328;5.558;2024-01-11T04:45:32;54.47;;;32.58;;
7737;SDS011;29398;45.328;5.558;2024-01-11T04:46:33;49.55;;;32.25;;
7737;SDS011;29398;45.328;5.558;2024-01-11T04:47:36;51.53;;;32.08;;
7737;SDS011;29398;45.328;5.558;2024-01-11T04:48:38;52.08;;;32.78;;
7737;SDS011;29398;45.328;5.558;2024-01-11T04:49:39;51.70;;;32.13;;
7737;SDS011;29398;45.328;5.558;2024-01-11T04:50:41;55.63;;;34.50;;
7737;SDS011;29398;45.328;5.558;2024-01-11T04:51:42;58.42;;;36.30;;
7737;SDS011;29398;45.328;5.558;2024-01-11T04:52:44;56.58;;;35.10;;
7737;SDS011;29398;45.328;5.558;2024-01-11T04:53:45;58.25;;;35.25;;
7737;SDS011;29398;45.328;5.558;2024-01-11T04:54:47;55.35;;;34.40;;
7737;SDS011;29398;45.328;5.558;2024-01-11T04:55:48;56.95;;;35.08;;
7737;SDS011;29398;45.328;5.558;2024-01-11T04:56:50;49.22;;;31.08;;
7737;SDS011;29398;45.328;5.558;2024-01-11T04:57:51;54.47;;;32.88;;
7737;SDS011;29398;45.328;5.558;2024-01-11T04:58:55;56.65;;;35.97;;
7737;SDS011;29398;45.328;5.558;2024-01-11T04:59:56;53.63;;;33.30;;
7737;SDS011;29398;45.328;5.558;2024-01-11T05:00:58;53.80;;;33.03;;
7737;SDS011;29398;45.328;5.558;2024-01-11T05:01:59;55.67;;;34.90;;
7737;SDS011;29398;45.328;5.558;2024-01-11T05:03:01;57.25;;;34.75;;
7737;SDS011;29398;45.328;5.558;2024-01-11T05:04:02;56.17;;;34.00;;
7737;SDS011;29398;45.328;5.558;2024-01-11T05:05:04;55.33;;;34.47;;
7737;SDS011;29398;45.328;5.558;2024-01-11T05:06:05;55.03;;;34.05;;
7737;SDS011;29398;45.328;5.558;2024-01-11T05:07:07;53.22;;;32.90;;
7737;SDS011;29398;45.328;5.558;2024-01-11T05:08:08;57.33;;;35.53;;
7737;SDS011;29398;45.328;5.558;2024-01-11T05:09:11;60.35;;;36.92;;
7737;SDS011;29398;45.328;5.558;2024-01-11T05:10:12;55.53;;;34.47;;
7737;SDS011;29398;45.328;5.558;2024-01-11T05:11:17;54.30;;;34.55;;
7737;SDS011;29398;45.328;5.558;2024-01-11T05:12:18;58.28;;;36.63;;
7737;SDS011;29398;45.328;5.558;2024-01-11T05:13:20;57.53;;;35.40;;
7737;SDS011;29398;45.328;5.558;2024-01-11T05:14:23;53.67;;;34.15;;
7737;SDS011;29398;45.328;5.558;2024-01-11T05:15:25;54.35;;;32.72;;
7737;SDS011;29398;45.328;5.558;2024-01-11T05:16:27;50.45;;;31.02;;
7737;SDS011;29398;45.328;5.558;2024-01-11T05:17:29;40.28;;;24.70;;
7737;SDS011;29398;45.328;5.558;2024-01-11T05:18:30;49.85;;;31.73;;
7737;SDS011;29398;45.328;5.558;2024-01-11T05:19:31;55.33;;;33.55;;
7737;SDS011;29398;45.328;5.558;2024-01-11T05:20:33;51.95;;;33.30;;
7737;SDS011;29398;45.328;5.558;2024-01-11T05:21:34;50.92;;;32.70;;
7737;SDS011;29398;45.328;5.558;2024-01-11T05:22:37;56.50;;;34.58;;
7737;SDS011;29398;45.328;5.558;2024-01-11T05:23:38;52.38;;;32.00;;
7737;SDS011;29398;45.328;5.558;2024-01-11T05:24:41;53.47;;;32.25;;
7737;SDS011;29398;45.328;5.558;2024-01-11T05:25:42;48.65;;;30.75;;
7737;SDS011;29398;45.328;5.558;2024-01-11T05:26:45;50.30;;;31.17;;
7737;SDS011;29398;45.328;5.558;2024-01-11T05:27:46;53.42;;;31.00;;
7737;SDS011;29398;45.328;5.558;2024-01-11T05:28:48;44.03;;;28.60;;
7737;SDS011;29398;45.328;5.558;2024-01-11T05:29:51;46.63;;;29.33;;
7737;SDS011;29398;45.328;5.558;2024-01-11T05:30:53;48.20;;;29.33;;
7737;SDS011;29398;45.328;5.558;2024-01-11T05:31:55;43.83;;;27.70;;
7737;SDS011;29398;45.328;5.558;2024-01-11T05:32:57;46.22;;;29.20;;
7737;SDS011;29398;45.328;5.558;2024-01-11T05:33:58;46.83;;;28.40;;
7737;SDS011;29398;45.328;5.558;2024-01-11T05:35:00;45.63;;;28.42;;
7737;SDS011;29398;45.328;5.558;2024-01-11T05:36:01;42.92;;;26.38;;
7737;SDS011;29398;45.328;5.558;2024-01-11T05:37:04;44.53;;;27.85;;
7737;SDS011;29398;45.328;5.558;2024-01-11T05:38:05;45.58;;;27.95;;
7737;SDS011;29398;45.328;5.558;2024-01-11T05:39:07;44.05;;;27.98;;
7737;SDS011;29398;45.328;5.558;2024-01-11T05:40:08;46.25;;;28.45;;
7737;SDS011;29398;45.328;5.558;2024-01-11T05:41:10;46.75;;;29.33;;
7737;SDS011;29398;45.328;5.558;2024-01-11T05:42:15;44.42;;;27.83;;
7737;SDS011;29398;45.328;5.558;2024-01-11T05:43:17;46.45;;;29.00;;
7737;SDS011;29398;45.328;5.558;2024-01-11T05:44:18;44.38;;;27.85;;
7737;SDS011;29398;45.328;5.558;2024-01-11T05:45:21;48.85;;;29.77;;
7737;SDS011;29398;45.328;5.558;2024-01-11T05:46:22;49.58;;;31.23;;
7737;SDS011;29398;45.328;5.558;2024-01-11T05:47:23;50.10;;;30.10;;
7737;SDS011;29398;45.328;5.558;2024-01-11T05:48:25;46.85;;;29.92;;
7737;SDS011;29398;45.328;5.558;2024-01-11T05:49:27;47.70;;;29.63;;
7737;SDS011;29398;45.328;5.558;2024-01-11T05:50:29;47.15;;;30.52;;
7737;SDS011;29398;45.328;5.558;2024-01-11T05:51:30;49.72;;;29.60;;
7737;SDS011;29398;45.328;5.558;2024-01-11T05:52:32;50.10;;;30.60;;
7737;SDS011;29398;45.328;5.558;2024-01-11T05:53:33;55.88;;;33.95;;
7737;SDS011;29398;45.328;5.558;2024-01-11T05:54:35;47.97;;;29.00;;
7737;SDS011;29398;45.328;5.558;2024-01-11T05:55:38;50.88;;;30.58;;
7737;SDS011;29398;45.328;5.558;2024-01-11T05:56:39;46.28;;;29.98;;
7737;SDS011;29398;45.328;5.558;2024-01-11T05:57:41;48.10;;;28.45;;
7737;SDS011;29398;45.328;5.558;2024-01-11T05:58:42;52.17;;;32.40;;
7737;SDS011;29398;45.328;5.558;2024-01-11T05:59:44;49.85;;;30.63;;
7737;SDS011;29398;45.328;5.558;2024-01-11T06:00:47;47.70;;;30.73;;
7737;SDS011;29398;45.328;5.558;2024-01-11T06:01:49;50.30;;;30.80;;
7737;SDS011;29398;45.328;5.558;2024-01-11T06:02:50;52.90;;;32.70;;
7737;SDS011;29398;45.328;5.558;2024-01-11T06:03:51;51.58;;;32.20;;
7737;SDS011;29398;45.328;5.558;2024-01-11T06:04:53;50.08;;;31.17;;
7737;SDS011;29398;45.328;5.558;2024-01-11T06:05:54;55.05;;;34.90;;
7737;SDS011;29398;45.328;5.558;2024-01-11T06:06:56;50.42;;;30.58;;